M I D A S
Marine Information and Data Acquisition System
Tripno 972 of the Zeeleeuw from 2005-10-17 06:25:46 to 2005-10-17 15:25:52
Back to CruiseResearch ActivitiesStationsMapUnderway DataData graphs

EquipmentUnitsComments
TimeDGPSUTC
LatitudeDGPSDM.mWGS84
LongitudeDGPSDM.mWGS84
SpeedMeteo Stationm/sRelative wind speed
DirectionMeteo StationdegRelative wind direction
TemperatureMeteo Stationdeg CelciusAir temperature
PressureMeteo StationPaAtmospheric pressure
HumidityMeteo Station%Relative humidity
Missing or incorrect values are displayed as -999
Metereological data collected by the RV Zeeleeuw from 2005-10-17 06:28:52 to 2005-10-17 15:35:43
Time Latitude Longitude Speed Direction Temperature Pressure Humidity
2005-10-17 06:29 51°13.62 2°56.034 -999 27 10 102290 88
2005-10-17 06:30 51°13.645 2°55.943 -999 350 10 102290 88
2005-10-17 06:31 51°13.679 2°55.848 -999 20 10 102280 89
2005-10-17 06:32 51°13.697 2°55.746 -999 49 10 102290 88
2005-10-17 06:33 51°13.716 2°55.753 -999 102 10 102280 89
2005-10-17 06:34 51°13.769 2°55.712 -999 166 10.1 102280 89
2005-10-17 06:35 51°13.863 2°55.601 -999 45 10.1 102290 88
2005-10-17 06:36 51°13.998 2°55.506 -999 82 10 102280 88
2005-10-17 06:37 51°14.148 2°55.396 -999 33 10 102290 88
2005-10-17 06:38 51°14.282 2°55.217 -999 109 10.1 102280 88
2005-10-17 06:39 51°14.393 2°54.988 -999 43 10.1 102290 88
2005-10-17 06:40 51°14.53 2°54.764 -999 77 10.1 102280 88
2005-10-17 06:41 51°14.713 2°54.614 -999 49 10.2 102290 87
2005-10-17 06:42 51°14.915 2°54.52 -999 52 10.2 102290 87
2005-10-17 06:43 51°15.103 2°54.414 -999 53 10.3 102300 89
2005-10-17 06:44 51°15.294 2°54.34 -999 51 10.2 102300 88
2005-10-17 06:45 51°15.478 2°54.229 -999 56 10.3 102300 87
2005-10-17 06:46 51°15.679 2°54.177 -999 71 10.3 102290 88
2005-10-17 06:47 51°15.878 2°54.147 -999 60 10.4 102290 88
2005-10-17 06:48 51°16.018 2°54.203 -999 70 10.3 102280 88
2005-10-17 06:49 51°16.139 2°54.228 -999 85 10.4 102290 88
2005-10-17 06:50 51°16.215 2°54.265 -999 72 10.4 102290 87
2005-10-17 06:51 51°16.231 2°54.281 -999 93 10.5 102290 88
2005-10-17 06:52 51°16.239 2°54.273 -999 100 10.4 102290 86
2005-10-17 06:53 51°16.24 2°54.256 -999 97 10.5 102290 86
2005-10-17 06:54 51°16.236 2°54.234 -999 102 10.4 102290 85
2005-10-17 06:55 51°16.229 2°54.206 -999 93 10.4 102290 85
2005-10-17 06:56 51°16.221 2°54.175 -999 90 10.4 102300 86
2005-10-17 06:57 51°16.21 2°54.14 -999 104 10.4 102290 85
2005-10-17 06:58 51°16.197 2°54.103 -999 100 10.5 102300 86
2005-10-17 06:59 51°16.185 2°54.065 -999 103 10.5 102290 87
2005-10-17 07:00 51°16.171 2°54.024 -999 97 10.5 102290 86
2005-10-17 07:01 51°16.163 2°53.992 -999 90 10.4 102290 86
2005-10-17 07:02 51°16.16 2°53.97 -999 84 10.5 102290 88
2005-10-17 07:03 51°16.157 2°53.956 -999 82 10.5 102290 87
2005-10-17 07:04 51°16.154 2°53.938 -999 80 10.5 102290 87
2005-10-17 07:05 51°16.147 2°53.912 -999 87 10.5 102290 87
2005-10-17 07:06 51°16.137 2°53.882 -999 92 10.4 102290 86
2005-10-17 07:07 51°16.124 2°53.849 -999 85 10.6 102290 88
2005-10-17 07:08 51°16.11 2°53.812 -999 83 10.5 102290 87
2005-10-17 07:09 51°16.125 2°53.793 -999 130 10.5 102290 86
2005-10-17 07:10 51°16.146 2°53.677 -999 243 10.4 102300 85
2005-10-17 07:11 51°16.152 2°53.394 -999 283 10.4 102300 85
2005-10-17 07:12 51°16.153 2°53.034 -999 300 10.5 102290 86
2005-10-17 07:13 51°16.165 2°52.683 -999 292 10.5 102300 86
2005-10-17 07:14 51°16.184 2°52.307 -999 304 10.6 102280 87
2005-10-17 07:15 51°16.203 2°51.958 -999 292 10.5 102290 86
2005-10-17 07:16 51°16.221 2°51.598 -999 288 10.6 102290 86
2005-10-17 07:17 51°16.242 2°51.242 -999 311 10.7 102280 87
2005-10-17 07:18 51°16.287 2°50.884 -999 322 10.7 102300 87
2005-10-17 07:19 51°16.354 2°50.552 -999 260 10.7 102290 86
2005-10-17 07:20 51°16.46 2°50.268 -999 175 10.7 102290 85
2005-10-17 07:21 51°16.556 2°49.953 -999 249 10.7 102300 85
2005-10-17 07:22 51°16.64 2°49.765 -999 120 10.8 102290 85
2005-10-17 07:23 51°16.686 2°49.765 -999 62 10.9 102280 86
2005-10-17 07:24 51°16.683 2°49.812 -999 28 11.1 102280 88
2005-10-17 07:25 51°16.664 2°49.817 -999 13 11 102290 85
2005-10-17 07:26 51°16.644 2°49.802 -999 349 11 102280 85
2005-10-17 07:27 51°16.651 2°49.757 -999 314 11 102280 84
2005-10-17 07:28 51°16.65 2°49.716 -999 293 11 102280 84
2005-10-17 07:29 51°16.551 2°49.614 -999 315 11.1 102280 84
2005-10-17 07:30 51°16.37 2°49.374 -999 315 11.1 102260 84
2005-10-17 07:31 51°16.192 2°49.125 -999 322 11.1 102270 85
2005-10-17 07:32 51°16.011 2°48.878 -999 319 11.1 102270 85
2005-10-17 07:33 51°15.839 2°48.637 -999 319 11.3 102270 86
2005-10-17 07:34 51°15.656 2°48.382 -999 227 11.3 102260 84
2005-10-17 07:35 51°15.48 2°48.136 -999 317 11.4 102270 83
2005-10-17 07:36 51°15.302 2°47.9 -999 318 11.4 102270 84
2005-10-17 07:37 51°15.124 2°47.665 -999 43 11.4 102270 83
2005-10-17 07:38 51°14.946 2°47.425 -999 319 11.4 102270 82
2005-10-17 07:39 51°14.77 2°47.176 -999 316 11.4 102260 83
2005-10-17 07:40 51°14.6 2°46.934 -999 319 11.4 102260 83
2005-10-17 07:41 51°14.416 2°46.677 -999 323 11.4 102260 83
2005-10-17 07:42 51°14.238 2°46.431 -999 317 11.3 102260 83
2005-10-17 07:43 51°14.066 2°46.197 -999 321 11.3 102260 83
2005-10-17 07:44 51°13.882 2°45.951 -999 322 11.3 102270 84
2005-10-17 07:45 51°13.705 2°45.717 -999 314 11.2 102270 85
2005-10-17 07:46 51°13.522 2°45.484 -999 318 11.2 102270 85
2005-10-17 07:47 51°13.341 2°45.246 -999 318 11.2 102270 85
2005-10-17 07:48 51°13.162 2°45.008 -999 229 11.1 102270 86
2005-10-17 07:49 51°12.99 2°44.773 -999 320 11.2 102260 85
2005-10-17 07:50 51°12.814 2°44.522 -999 42 11.2 102260 86
2005-10-17 07:51 51°12.64 2°44.266 -999 314 11.2 102260 85
2005-10-17 07:52 51°12.467 2°44.014 -999 316 11.3 102260 86
2005-10-17 07:53 51°12.289 2°43.753 -999 317 11.3 102260 85
2005-10-17 07:54 51°12.119 2°43.502 -999 42 11.3 102250 85
2005-10-17 07:55 51°11.949 2°43.253 -999 315 11.3 102250 84
2005-10-17 07:56 51°11.783 2°43.022 -999 314 11.2 102250 84
2005-10-17 07:57 51°11.619 2°42.745 -999 315 11.2 102260 84
2005-10-17 07:58 51°11.463 2°42.469 -999 312 11.1 102260 85
2005-10-17 07:59 51°11.318 2°42.21 -999 311 11.1 102250 85
2005-10-17 08:00 51°11.199 2°42.131 -999 341 11.2 102260 86
2005-10-17 08:01 51°11.137 2°42.15 -999 1 11.1 102260 86
2005-10-17 08:02 51°11.12 2°42.125 -999 17 11.2 102270 86
2005-10-17 08:03 51°11.109 2°42.095 -999 25 11.1 102270 85
2005-10-17 08:04 51°11.1 2°42.057 -999 29 11 102270 86
2005-10-17 08:05 51°11.094 2°42.017 -999 43 10.9 102270 85
2005-10-17 08:06 51°11.088 2°41.968 -999 57 10.8 102270 85
2005-10-17 08:07 51°11.081 2°41.917 -999 73 10.8 102270 86
2005-10-17 08:08 51°11.088 2°41.905 -999 91 10.8 102270 86
2005-10-17 08:09 51°11.143 2°41.853 -999 214 10.9 102280 88
2005-10-17 08:10 51°11.107 2°41.677 -999 295 11 102270 87
2005-10-17 08:11 51°11.014 2°41.379 -999 311 11 102260 87
2005-10-17 08:12 51°10.922 2°41.052 -999 308 11.1 102260 87
2005-10-17 08:13 51°10.836 2°40.692 -999 305 11.1 102260 87
2005-10-17 08:14 51°10.755 2°40.353 -999 310 11.2 102260 87
2005-10-17 08:15 51°10.669 2°39.991 -999 303 11.2 102270 86
2005-10-17 08:16 51°10.585 2°39.641 -999 308 11.3 102270 86
2005-10-17 08:17 51°10.5 2°39.29 -999 228 11.3 102260 87
2005-10-17 08:18 51°10.423 2°38.932 -999 316 11.3 102270 87
2005-10-17 08:19 51°10.351 2°38.57 -999 314 11.4 102260 87
2005-10-17 08:20 51°10.279 2°38.205 -999 307 11.5 102260 86
2005-10-17 08:21 51°10.218 2°37.836 -999 310 11.6 102260 86
2005-10-17 08:22 51°10.16 2°37.467 -999 310 11.6 102260 85
2005-10-17 08:23 51°10.103 2°37.103 -999 313 11.6 102270 84
2005-10-17 08:24 51°10.053 2°36.739 -999 315 11.6 102260 84
2005-10-17 08:25 51°10.019 2°36.372 -999 308 11.6 102260 84
2005-10-17 08:26 51°10.027 2°36.006 -999 294 11.7 102270 85
2005-10-17 08:27 51°10.138 2°35.712 -999 79 11.7 102270 85
2005-10-17 08:28 51°10.33 2°35.64 -999 77 11.7 102270 84
2005-10-17 08:29 51°10.509 2°35.758 -999 62 11.8 102250 85
2005-10-17 08:30 51°10.662 2°35.932 -999 63 11.7 102240 85
2005-10-17 08:31 51°10.829 2°36.109 -999 63 11.7 102250 84
2005-10-17 08:32 51°10.998 2°36.262 -999 58 11.7 102250 84
2005-10-17 08:33 51°11.169 2°36.412 -999 66 11.8 102260 85
2005-10-17 08:34 51°11.337 2°36.563 -999 64 11.8 102250 84
2005-10-17 08:35 51°11.508 2°36.715 -999 53 11.9 102250 84
2005-10-17 08:36 51°11.679 2°36.867 -999 54 11.9 102260 84
2005-10-17 08:37 51°11.848 2°37.016 -999 59 11.9 102260 84
2005-10-17 08:38 51°12.018 2°37.165 -999 62 11.9 102260 84
2005-10-17 08:39 51°12.182 2°37.31 -999 56 11.8 102260 84
2005-10-17 08:40 51°12.357 2°37.465 -999 63 11.8 102260 84
2005-10-17 08:41 51°12.516 2°37.624 -999 64 11.8 102250 85
2005-10-17 08:42 51°12.687 2°37.794 -999 64 11.8 102240 84
2005-10-17 08:43 51°12.852 2°37.955 -999 65 11.8 102230 84
2005-10-17 08:44 51°13.017 2°38.118 -999 67 11.8 102240 83
2005-10-17 08:45 51°13.184 2°38.287 -999 68 11.9 102240 83
2005-10-17 08:46 51°13.349 2°38.447 -999 63 11.9 102230 83
2005-10-17 08:47 51°13.529 2°38.602 -999 67 11.9 102230 83
2005-10-17 08:48 51°13.712 2°38.724 -999 73 12 102240 84
2005-10-17 08:49 51°13.909 2°38.801 -999 80 12 102250 84
2005-10-17 08:50 51°14.11 2°38.82 -999 70 12 102260 83
2005-10-17 08:51 51°14.301 2°38.722 -999 48 12.1 102260 84
2005-10-17 08:52 51°14.479 2°38.545 -999 85 12.1 102260 82
2005-10-17 08:53 51°14.656 2°38.369 -999 75 12.2 102260 83
2005-10-17 08:54 51°14.832 2°38.194 -999 81 12.3 102260 82
2005-10-17 08:55 51°15.009 2°38.025 -999 99 12.3 102250 83
2005-10-17 08:56 51°15.188 2°37.862 -999 91 12.4 102260 82
2005-10-17 08:57 51°15.37 2°37.697 -999 86 12.5 102260 82
2005-10-17 08:58 51°15.555 2°37.533 -999 64 12.5 102260 81
2005-10-17 08:59 51°15.742 2°37.376 -999 84 12.5 102260 81
2005-10-17 09:00 51°15.929 2°37.221 -999 73 12.6 102260 82
2005-10-17 09:01 51°16.116 2°37.06 -999 92 12.5 102260 81
2005-10-17 09:02 51°16.303 2°36.906 -999 94 12.5 102260 80
2005-10-17 09:03 51°16.408 2°36.846 -999 110 12.6 102260 82
2005-10-17 09:04 51°16.466 2°36.803 -999 162 12.7 102260 82
2005-10-17 09:05 51°16.518 2°36.754 -999 115 12.7 102260 81
2005-10-17 09:06 51°16.565 2°36.746 -999 114 12.8 102250 81
2005-10-17 09:07 51°16.571 2°36.732 -999 93 12.7 102250 79
2005-10-17 09:08 51°16.569 2°36.714 -999 90 12.8 102250 81
2005-10-17 09:09 51°16.564 2°36.689 -999 81 12.8 102250 81
2005-10-17 09:10 51°16.558 2°36.66 -999 83 12.8 102250 80
2005-10-17 09:11 51°16.552 2°36.629 -999 88 12.8 102250 80
2005-10-17 09:12 51°16.546 2°36.597 -999 91 12.7 102240 79
2005-10-17 09:13 51°16.54 2°36.564 -999 99 12.8 102250 81
2005-10-17 09:14 51°16.533 2°36.53 -999 92 12.8 102250 80
2005-10-17 09:15 51°16.527 2°36.495 -999 106 12.8 102250 81
2005-10-17 09:16 51°16.525 2°36.467 -999 106 12.8 102250 80
2005-10-17 09:17 51°16.586 2°36.428 -999 124 12.8 102250 79
2005-10-17 09:18 51°16.755 2°36.333 -999 56 12.8 102240 80
2005-10-17 09:19 51°16.943 2°36.185 -999 45 12.8 102250 80
2005-10-17 09:20 51°17.112 2°35.982 -999 30 12.7 102250 80
2005-10-17 09:21 51°17.266 2°35.751 -999 8 12.8 102240 81
2005-10-17 09:22 51°17.411 2°35.509 -999 332 12.9 102250 82
2005-10-17 09:23 51°17.555 2°35.268 -999 343 13 102250 81
2005-10-17 09:24 51°17.698 2°35.017 -999 344 13 102250 80
2005-10-17 09:25 51°17.833 2°34.75 -999 343 13.1 102240 79
2005-10-17 09:26 51°17.966 2°34.475 -999 5 13.1 102250 78
2005-10-17 09:27 51°18.099 2°34.198 -999 335 13.2 102240 78
2005-10-17 09:28 51°18.23 2°33.919 -999 3 13.3 102250 79
2005-10-17 09:29 51°18.358 2°33.64 -999 353 13.4 102260 80
2005-10-17 09:30 51°18.486 2°33.364 -999 342 13.5 102250 79
2005-10-17 09:31 51°18.614 2°33.087 -999 8 13.5 102260 77
2005-10-17 09:32 51°18.738 2°32.802 -999 352 13.5 102250 77
2005-10-17 09:33 51°18.859 2°32.514 -999 353 13.5 102240 77
2005-10-17 09:34 51°18.982 2°32.226 -999 15 13.5 102250 77
2005-10-17 09:35 51°19.104 2°31.937 -999 9 13.5 102250 78
2005-10-17 09:36 51°19.225 2°31.644 -999 16 13.5 102250 78
2005-10-17 09:37 51°19.346 2°31.352 -999 1 13.6 102250 78
2005-10-17 09:38 51°19.469 2°31.065 -999 333 13.6 102250 79
2005-10-17 09:39 51°19.593 2°30.784 -999 359 13.6 102250 78
2005-10-17 09:40 51°19.727 2°30.521 -999 17 13.6 102250 78
2005-10-17 09:41 51°19.872 2°30.291 -999 61 13.6 102250 78
2005-10-17 09:42 51°19.953 2°30.144 -999 189 13.7 102260 81
2005-10-17 09:43 51°20 2°30.064 -999 148 13.7 102260 79
2005-10-17 09:44 51°20.021 2°30.048 -999 135 13.6 102250 78
2005-10-17 09:45 51°20.023 2°30.051 -999 129 13.5 102240 78
2005-10-17 09:46 51°20.022 2°30.056 -999 127 13.6 102230 80
2005-10-17 09:47 51°20.019 2°30.06 -999 124 13.5 102230 79
2005-10-17 09:48 51°20.014 2°30.063 -999 120 13.4 102240 79
2005-10-17 09:49 51°20.039 2°30.096 -999 71 13.4 102240 80
2005-10-17 09:50 51°20.095 2°30.275 -999 43 13.4 102240 79
2005-10-17 09:51 51°20.173 2°30.595 -999 35 13.2 102230 79
2005-10-17 09:52 51°20.232 2°30.939 -999 35 13.2 102220 79
2005-10-17 09:53 51°20.291 2°31.278 -999 31 13.2 102220 79
2005-10-17 09:54 51°20.349 2°31.612 -999 35 13.2 102230 80
2005-10-17 09:55 51°20.408 2°31.944 -999 32 13.2 102230 80
2005-10-17 09:56 51°20.467 2°32.274 -999 32 13.2 102220 80
2005-10-17 09:57 51°20.527 2°32.606 -999 33 13.2 102230 81
2005-10-17 09:58 51°20.589 2°32.935 -999 33 13.1 102210 79
2005-10-17 09:59 51°20.651 2°33.263 -999 32 13.1 102220 79
2005-10-17 10:00 51°20.716 2°33.591 -999 34 13.1 102210 78
2005-10-17 10:01 51°20.78 2°33.925 -999 40 13.2 102220 79
2005-10-17 10:02 51°20.845 2°34.26 -999 31 13.2 102220 78
2005-10-17 10:03 51°20.91 2°34.593 -999 32 13.2 102220 78
2005-10-17 10:04 51°20.976 2°34.927 -999 33 13.3 102220 77
2005-10-17 10:05 51°21.093 2°35.214 -999 36 13.3 102220 78
2005-10-17 10:06 51°21.212 2°35.503 -999 33 13.2 102230 78
2005-10-17 10:07 51°21.329 2°35.795 -999 32 13.2 102220 79
2005-10-17 10:08 51°21.445 2°36.089 -999 32 13.1 102220 79
2005-10-17 10:09 51°21.563 2°36.385 -999 34 13.1 102220 81
2005-10-17 10:10 51°21.68 2°36.683 -999 32 13 102230 79
2005-10-17 10:11 51°21.797 2°36.981 -999 38 13 102220 79
2005-10-17 10:12 51°21.914 2°37.28 -999 33 13 102220 79
2005-10-17 10:13 51°22.032 2°37.578 -999 32 13 102220 79
2005-10-17 10:14 51°22.15 2°37.876 -999 36 12.9 102240 80
2005-10-17 10:15 51°22.266 2°38.172 -999 37 12.9 102220 79
2005-10-17 10:16 51°22.384 2°38.467 -999 35 12.9 102220 79
2005-10-17 10:17 51°22.502 2°38.763 -999 33 12.9 102230 79
2005-10-17 10:18 51°22.62 2°39.059 -999 35 12.9 102230 79
2005-10-17 10:19 51°22.739 2°39.356 -999 33 12.8 102220 79
2005-10-17 10:20 51°22.856 2°39.652 -999 31 12.8 102230 79
2005-10-17 10:21 51°22.975 2°39.95 -999 33 12.8 102220 81
2005-10-17 10:22 51°23.094 2°40.251 -999 34 12.8 102230 79
2005-10-17 10:23 51°23.212 2°40.551 -999 32 12.8 102230 79
2005-10-17 10:24 51°23.332 2°40.853 -999 31 12.8 102230 79
2005-10-17 10:25 51°23.451 2°41.154 -999 31 12.8 102220 80
2005-10-17 10:26 51°23.533 2°41.482 -999 24 12.7 102240 80
2005-10-17 10:27 51°23.608 2°41.82 -999 25 12.8 102230 80
2005-10-17 10:28 51°23.717 2°42.133 -999 26 12.8 102230 78
2005-10-17 10:29 51°23.824 2°42.45 -999 31 12.8 102230 79
2005-10-17 10:30 51°23.93 2°42.773 -999 30 12.8 102230 78
2005-10-17 10:31 51°24.037 2°43.096 -999 28 12.8 102220 79
2005-10-17 10:32 51°24.144 2°43.418 -999 29 12.8 102230 79
2005-10-17 10:33 51°24.251 2°43.739 -999 27 12.8 102230 79
2005-10-17 10:34 51°24.361 2°44.062 -999 23 12.8 102220 77
2005-10-17 10:35 51°24.471 2°44.388 -999 31 12.8 102230 78
2005-10-17 10:36 51°24.581 2°44.714 -999 28 12.8 102220 78
2005-10-17 10:37 51°24.691 2°45.039 -999 31 12.8 102230 78
2005-10-17 10:38 51°24.801 2°45.364 -999 26 12.8 102230 77
2005-10-17 10:39 51°24.91 2°45.689 -999 26 12.8 102230 78
2005-10-17 10:40 51°25.019 2°46.011 -999 26 12.8 102230 77
2005-10-17 10:41 51°25.129 2°46.332 -999 27 12.8 102230 77
2005-10-17 10:42 51°25.236 2°46.653 -999 30 12.9 102230 78
2005-10-17 10:43 51°25.342 2°46.974 -999 30 12.9 102230 77
2005-10-17 10:44 51°25.455 2°47.289 -999 26 12.9 102230 78
2005-10-17 10:45 51°25.58 2°47.592 -999 35 13 102230 78
2005-10-17 10:46 51°25.705 2°47.895 -999 32 12.8 102220 76
2005-10-17 10:47 51°25.847 2°48.182 -999 41 12.9 102220 78
2005-10-17 10:48 51°25.976 2°48.435 -999 30 12.8 102210 77
2005-10-17 10:49 51°26.028 2°48.587 -999 42 12.7 102240 77
2005-10-17 10:50 51°26.033 2°48.6 -999 79 12.7 102240 78
2005-10-17 10:51 51°26.036 2°48.61 -999 94 12.7 102230 80
2005-10-17 10:52 51°26.042 2°48.62 -999 108 12.8 102240 79
2005-10-17 10:53 51°26.047 2°48.629 -999 112 12.8 102230 77
2005-10-17 10:54 51°26.052 2°48.639 -999 126 12.9 102240 79
2005-10-17 10:55 51°26.057 2°48.648 -999 133 12.9 102240 78
2005-10-17 10:56 51°26.062 2°48.657 -999 133 12.9 102230 78
2005-10-17 10:57 51°26.094 2°48.665 -999 92 12.9 102240 77
2005-10-17 10:58 51°26.156 2°48.775 -999 31 12.9 102230 77
2005-10-17 10:59 51°26.226 2°49.085 -999 18 12.8 102210 76
2005-10-17 11:00 51°26.263 2°49.452 -999 14 12.9 102230 76
2005-10-17 11:01 51°26.297 2°49.825 -999 17 12.9 102230 77
2005-10-17 11:02 51°26.333 2°50.197 -999 14 12.9 102220 75
2005-10-17 11:03 51°26.37 2°50.569 -999 15 13 102220 75
2005-10-17 11:04 51°26.409 2°50.942 -999 18 13 102220 75
2005-10-17 11:05 51°26.447 2°51.316 -999 14 12.9 102210 75
2005-10-17 11:06 51°26.488 2°51.687 -999 18 13 102230 76
2005-10-17 11:07 51°26.53 2°52.06 -999 20 12.9 102220 74
2005-10-17 11:08 51°26.573 2°52.431 -999 17 12.9 102220 75
2005-10-17 11:09 51°26.616 2°52.806 -999 14 12.9 102220 73
2005-10-17 11:10 51°26.658 2°53.181 -999 15 12.9 102220 73
2005-10-17 11:11 51°26.7 2°53.554 -999 18 12.9 102220 73
2005-10-17 11:12 51°26.743 2°53.927 -999 16 12.9 102210 74
2005-10-17 11:13 51°26.802 2°54.293 -999 20 12.9 102220 72
2005-10-17 11:14 51°26.87 2°54.663 -999 22 12.9 102210 71
2005-10-17 11:15 51°26.934 2°55.031 -999 20 13 102210 72
2005-10-17 11:16 51°27.001 2°55.399 -999 17 13 102210 73
2005-10-17 11:17 51°27.067 2°55.764 -999 18 12.9 102210 72
2005-10-17 11:18 51°27.133 2°56.126 -999 18 13 102220 72
2005-10-17 11:19 51°27.191 2°56.501 -999 17 12.9 102210 72
2005-10-17 11:20 51°27.247 2°56.873 -999 17 13 102210 74
2005-10-17 11:21 51°27.305 2°57.242 -999 18 13 102210 72
2005-10-17 11:22 51°27.362 2°57.61 -999 21 13 102210 71
2005-10-17 11:23 51°27.419 2°57.976 -999 22 13.1 102210 71
2005-10-17 11:24 51°27.475 2°58.341 -999 18 13 102200 71
2005-10-17 11:25 51°27.532 2°58.711 -999 23 13.1 102210 72
2005-10-17 11:26 51°27.587 2°59.08 -999 25 13.1 102220 71
2005-10-17 11:27 51°27.643 2°59.447 -999 19 13.2 102210 70
2005-10-17 11:28 51°27.7 2°59.814 -999 16 13.2 102210 70
2005-10-17 11:29 51°27.758 3°0.186 -999 22 13.2 102200 70
2005-10-17 11:30 51°27.817 3°0.557 -999 17 13.2 102210 71
2005-10-17 11:31 51°27.877 3°0.928 -999 15 13.2 102210 71
2005-10-17 11:32 51°27.934 3°1.302 -999 21 13.2 102210 74
2005-10-17 11:33 51°27.994 3°1.674 -999 14 13.2 102210 73
2005-10-17 11:34 51°28.053 3°2.047 -999 18 13.2 102210 73
2005-10-17 11:35 51°28.11 3°2.422 -999 13 13.1 102200 73
2005-10-17 11:36 51°28.169 3°2.799 -999 20 13.2 102200 76
2005-10-17 11:37 51°28.226 3°3.175 -999 15 13.1 102200 74
2005-10-17 11:38 51°28.276 3°3.45 -999 34 13.1 102200 74
2005-10-17 11:39 51°28.302 3°3.523 -999 68 13.1 102200 75
2005-10-17 11:40 51°28.304 3°3.539 -999 96 13 102200 75
2005-10-17 11:41 51°28.308 3°3.562 -999 109 13 102200 76
2005-10-17 11:42 51°28.315 3°3.585 -999 128 12.9 102200 74
2005-10-17 11:43 51°28.324 3°3.613 -999 116 13 102210 75
2005-10-17 11:44 51°28.339 3°3.638 -999 116 13 102200 76
2005-10-17 11:45 51°28.405 3°3.699 -999 34 13 102200 75
2005-10-17 11:46 51°28.4 3°3.93 -999 358 13 102200 74
2005-10-17 11:47 51°28.287 3°4.224 -999 342 13.1 102160 73
2005-10-17 11:48 51°28.161 3°4.517 -999 348 13.1 102160 74
2005-10-17 11:49 51°28.033 3°4.809 -999 343 13.2 102150 73
2005-10-17 11:50 51°27.907 3°5.101 -999 346 13.2 102160 74
2005-10-17 11:51 51°27.781 3°5.393 -999 344 13.2 102160 73
2005-10-17 11:52 51°27.657 3°5.686 -999 343 13.2 102150 73
2005-10-17 11:53 51°27.532 3°5.977 -999 349 13.2 102160 73
2005-10-17 11:54 51°27.406 3°6.264 -999 340 13.2 102150 74
2005-10-17 11:55 51°27.279 3°6.551 -999 339 13.2 102150 73
2005-10-17 11:56 51°27.154 3°6.837 -999 343 13.2 102160 73
2005-10-17 11:57 51°27.028 3°7.12 -999 341 13.2 102160 73
2005-10-17 11:58 51°26.903 3°7.403 -999 342 13.2 102160 74
2005-10-17 11:59 51°26.778 3°7.689 -999 341 13.2 102150 73
2005-10-17 12:00 51°26.653 3°7.974 -999 340 13.3 102160 75
2005-10-17 12:01 51°26.56 3°8.172 -999 339 13.2 102170 72
2005-10-17 12:02 51°26.518 3°8.327 -999 353 13.2 102170 72
2005-10-17 12:03 51°26.513 3°8.408 -999 316 13.2 102180 74
2005-10-17 12:04 51°26.526 3°8.426 -999 279 13.2 102190 73
2005-10-17 12:05 51°26.537 3°8.442 -999 264 13.2 102200 74
2005-10-17 12:06 51°26.547 3°8.456 -999 268 13.3 102190 75
2005-10-17 12:07 51°26.557 3°8.469 -999 265 13.3 102190 76
2005-10-17 12:08 51°26.553 3°8.474 -999 264 13.4 102200 73
2005-10-17 12:09 51°26.498 3°8.531 -999 331 13.3 102180 73
2005-10-17 12:10 51°26.381 3°8.737 -999 341 13.3 102150 72
2005-10-17 12:11 51°26.279 3°9.049 -999 343 13.3 102150 73
2005-10-17 12:12 51°26.18 3°9.369 -999 352 13.3 102150 72
2005-10-17 12:13 51°26.08 3°9.685 -999 348 13.4 102150 73
2005-10-17 12:14 51°25.977 3°9.998 -999 348 13.4 102150 71
2005-10-17 12:15 51°25.873 3°10.31 -999 342 13.4 102150 72
2005-10-17 12:16 51°25.767 3°10.62 -999 344 13.4 102140 72
2005-10-17 12:17 51°25.662 3°10.929 -999 345 13.4 102140 72
2005-10-17 12:18 51°25.564 3°11.249 -999 349 13.4 102130 70
2005-10-17 12:19 51°25.478 3°11.577 -999 351 13.4 102140 72
2005-10-17 12:20 51°25.433 3°11.928 -999 5 13.4 102140 71
2005-10-17 12:21 51°25.44 3°12.296 -999 8 13.3 102160 69
2005-10-17 12:22 51°25.445 3°12.665 -999 1 13.3 102160 68
2005-10-17 12:23 51°25.456 3°13.037 -999 11 13.3 102150 71
2005-10-17 12:24 51°25.479 3°13.407 -999 11 13.3 102160 70
2005-10-17 12:25 51°25.502 3°13.78 -999 13 13.3 102170 71
2005-10-17 12:26 51°25.538 3°14.151 -999 10 13.2 102160 69
2005-10-17 12:27 51°25.587 3°14.519 -999 13 13.2 102160 70
2005-10-17 12:28 51°25.628 3°14.89 -999 15 13.3 102160 69
2005-10-17 12:29 51°25.668 3°15.264 -999 15 13.3 102160 68
2005-10-17 12:30 51°25.706 3°15.639 -999 11 13.3 102150 69
2005-10-17 12:31 51°25.743 3°16.017 -999 16 13.3 102160 67
2005-10-17 12:32 51°25.779 3°16.396 -999 17 13.3 102150 68
2005-10-17 12:33 51°25.813 3°16.776 -999 11 13.3 102150 66
2005-10-17 12:34 51°25.84 3°17.157 -999 10 13.4 102160 66
2005-10-17 12:35 51°25.865 3°17.528 -999 19 13.4 102140 65
2005-10-17 12:36 51°25.874 3°17.747 -999 4 13.4 102170 67
2005-10-17 12:37 51°25.881 3°17.797 -999 49 13.4 102160 65
2005-10-17 12:38 51°25.885 3°17.812 -999 79 13.3 102160 65
2005-10-17 12:39 51°25.888 3°17.829 -999 106 13.4 102160 67
2005-10-17 12:40 51°25.893 3°17.849 -999 116 13.4 102160 68
2005-10-17 12:41 51°25.9 3°17.87 -999 119 13.4 102160 68
2005-10-17 12:42 51°25.908 3°17.891 -999 123 13.4 102160 65
2005-10-17 12:43 51°25.946 3°17.844 -999 213 13.5 102170 68
2005-10-17 12:44 51°25.88 3°17.673 -999 274 13.6 102180 69
2005-10-17 12:45 51°25.75 3°17.462 -999 281 13.7 102170 69
2005-10-17 12:46 51°25.595 3°17.277 -999 295 13.7 102170 69
2005-10-17 12:47 51°25.443 3°17.09 -999 277 13.8 102160 70
2005-10-17 12:48 51°25.288 3°16.909 -999 292 13.7 102170 69
2005-10-17 12:49 51°25.132 3°16.721 -999 284 13.7 102160 68
2005-10-17 12:50 51°24.974 3°16.527 -999 284 13.7 102160 67
2005-10-17 12:51 51°24.813 3°16.341 -999 280 13.7 102150 67
2005-10-17 12:52 51°24.663 3°16.147 -999 278 13.8 102150 68
2005-10-17 12:53 51°24.519 3°15.945 -999 284 13.8 102160 67
2005-10-17 12:54 51°24.37 3°15.74 -999 283 13.9 102160 67
2005-10-17 12:55 51°24.223 3°15.532 -999 276 13.9 102160 68
2005-10-17 12:56 51°24.075 3°15.327 -999 271 13.9 102150 68
2005-10-17 12:57 51°23.928 3°15.123 -999 297 14 102150 69
2005-10-17 12:58 51°23.78 3°14.923 -999 291 14 102150 66
2005-10-17 12:59 51°23.636 3°14.727 -999 286 14.1 102150 67
2005-10-17 13:00 51°23.492 3°14.527 -999 291 14.1 102150 67
2005-10-17 13:01 51°23.346 3°14.328 -999 284 14.1 102150 66
2005-10-17 13:02 51°23.202 3°14.122 -999 299 14.2 102150 68
2005-10-17 13:03 51°23.056 3°13.922 -999 284 14.2 102140 64
2005-10-17 13:04 51°22.908 3°13.72 -999 287 14.3 102150 64
2005-10-17 13:05 51°22.769 3°13.505 -999 298 14.3 102150 65
2005-10-17 13:06 51°22.656 3°13.284 -999 264 14.4 102140 66
2005-10-17 13:07 51°22.602 3°13.208 -999 227 14.4 102140 63
2005-10-17 13:08 51°22.6 3°13.203 -999 204 14.3 102140 63
2005-10-17 13:09 51°22.6 3°13.197 -999 206 14.1 102150 63
2005-10-17 13:10 51°22.599 3°13.192 -999 217 14.1 102150 65
2005-10-17 13:11 51°22.594 3°13.19 -999 226 14.1 102150 63
2005-10-17 13:12 51°22.576 3°13.173 -999 233 14 102160 65
2005-10-17 13:13 51°22.527 3°12.96 -999 58 14 102150 66
2005-10-17 13:14 51°22.519 3°12.659 -999 154 14.2 102140 68
2005-10-17 13:15 51°22.516 3°12.357 -999 167 14.2 102140 67
2005-10-17 13:16 51°22.51 3°12.055 -999 166 14.2 102140 68
2005-10-17 13:17 51°22.491 3°11.756 -999 158 14.3 102140 69
2005-10-17 13:18 51°22.468 3°11.455 -999 226 14.4 102140 69
2005-10-17 13:19 51°11.072 2°56.428 -999 357 -999 -999 -999
2005-10-17 13:20 51°11.072 2°56.428 -999 348 10.5 102270 89
2005-10-17 13:21 51°22.404 3°10.728 -999 214 14.4 102130 62
2005-10-17 13:22 51°22.378 3°10.428 -999 184 14.4 102130 63
2005-10-17 13:23 51°22.354 3°10.126 -999 216 14.6 102140 65
2005-10-17 13:24 51°22.33 3°9.824 -999 229 14.7 102140 64
2005-10-17 13:25 51°22.299 3°9.519 -999 231 14.8 102140 65
2005-10-17 13:26 51°22.266 3°9.224 -999 244 15 102140 64
2005-10-17 13:27 51°22.232 3°8.919 -999 235 15 102140 62
2005-10-17 13:28 51°22.199 3°8.606 -999 252 15.1 102140 63
2005-10-17 13:29 51°22.162 3°8.306 -999 237 15.2 102140 63
2005-10-17 13:30 51°22.128 3°8.001 -999 242 15.2 102140 62
2005-10-17 13:31 51°22.069 3°7.705 -999 226 15.1 102140 61
2005-10-17 13:32 51°22.008 3°7.411 -999 226 15 102140 61
2005-10-17 13:33 51°21.945 3°7.118 -999 269 14.9 102140 62
2005-10-17 13:34 51°21.882 3°6.822 -999 249 15 102130 65
2005-10-17 13:35 51°21.821 3°6.526 -999 249 15 102140 63
2005-10-17 13:36 51°21.76 3°6.231 -999 252 15.1 102130 64
2005-10-17 13:37 51°21.699 3°5.937 -999 219 15.1 102140 62
2005-10-17 13:38 51°21.639 3°5.637 -999 243 15 102140 64
2005-10-17 13:39 51°21.578 3°5.335 -999 211 15.1 102140 63
2005-10-17 13:40 51°21.519 3°5.031 -999 305 15 102140 64
2005-10-17 13:41 51°21.458 3°4.728 -999 228 15.1 102140 66
2005-10-17 13:42 51°21.393 3°4.428 -999 280 15.3 102130 65
2005-10-17 13:43 51°21.329 3°4.12 -999 275 15.4 102130 66
2005-10-17 13:44 51°21.267 3°3.819 -999 294 15.5 102130 62
2005-10-17 13:45 51°21.207 3°3.525 -999 276 15.6 102130 60
2005-10-17 13:46 51°21.146 3°3.225 -999 266 15.7 102130 59
2005-10-17 13:47 51°21.084 3°2.924 -999 263 15.7 102140 59
2005-10-17 13:48 51°21.023 3°2.619 -999 246 15.7 102140 61
2005-10-17 13:49 51°20.966 3°2.323 -999 264 15.7 102130 61
2005-10-17 13:50 51°20.908 3°2.02 -999 285 15.8 102130 62
2005-10-17 13:51 51°20.851 3°1.726 -999 282 15.8 102130 60
2005-10-17 13:52 51°20.794 3°1.427 -999 277 15.8 102140 58
2005-10-17 13:53 51°20.73 3°1.129 -999 281 15.8 102140 58
2005-10-17 13:54 51°20.661 3°0.83 -999 274 15.8 102130 60
2005-10-17 13:55 51°20.594 3°0.531 -999 277 15.8 102130 58
2005-10-17 13:56 51°20.527 3°0.232 -999 271 15.7 102130 59
2005-10-17 13:57 51°20.462 2°59.934 -999 275 15.8 102140 59
2005-10-17 13:58 51°20.397 2°59.64 -999 271 15.8 102130 61
2005-10-17 13:59 51°20.333 2°59.345 -999 288 15.8 102130 59
2005-10-17 14:00 51°20.271 2°59.048 -999 286 15.9 102130 60
2005-10-17 14:01 51°20.207 2°58.752 -999 284 15.9 102130 58
2005-10-17 14:02 51°20.143 2°58.455 -999 280 15.9 102120 59
2005-10-17 14:03 51°20.08 2°58.156 -999 295 15.9 102120 57
2005-10-17 14:04 51°20.016 2°57.859 -999 290 15.9 102120 60
2005-10-17 14:05 51°19.954 2°57.556 -999 279 15.9 102110 56
2005-10-17 14:06 51°19.889 2°57.257 -999 275 15.9 102120 58
2005-10-17 14:07 51°19.824 2°56.957 -999 269 15.9 102120 60
2005-10-17 14:08 51°19.759 2°56.658 -999 263 15.9 102120 56
2005-10-17 14:09 51°19.693 2°56.359 -999 288 15.9 102110 57
2005-10-17 14:10 51°19.629 2°56.058 -999 259 15.9 102120 58
2005-10-17 14:11 51°19.561 2°55.76 -999 232 15.9 102110 60
2005-10-17 14:12 51°19.494 2°55.456 -999 261 15.9 102110 58
2005-10-17 14:13 51°19.428 2°55.152 -999 299 15.9 102110 59
2005-10-17 14:14 51°19.361 2°54.844 -999 266 15.9 102110 58
2005-10-17 14:15 51°19.296 2°54.546 -999 288 15.8 102110 58
2005-10-17 14:16 51°19.221 2°54.248 -999 300 15.8 102110 57
2005-10-17 14:17 51°19.149 2°53.948 -999 263 15.8 102110 59
2005-10-17 14:18 51°19.08 2°53.646 -999 263 15.8 102120 59
2005-10-17 14:19 51°19.014 2°53.338 -999 267 15.8 102110 57
2005-10-17 14:20 51°18.947 2°53.026 -999 255 15.7 102110 59
2005-10-17 14:21 51°18.883 2°52.726 -999 253 15.7 102110 59
2005-10-17 14:22 51°18.816 2°52.42 -999 262 15.7 102100 60
2005-10-17 14:23 51°18.747 2°52.114 -999 288 15.7 102100 61
2005-10-17 14:24 51°18.681 2°51.809 -999 241 15.7 102100 59
2005-10-17 14:25 51°18.612 2°51.503 -999 269 15.7 102090 60
2005-10-17 14:26 51°18.552 2°51.225 -999 241 15.8 102100 58
2005-10-17 14:27 51°18.52 2°51.067 -999 225 15.6 102100 58
2005-10-17 14:28 51°18.51 2°50.995 -999 189 15.5 102100 62
2005-10-17 14:29 51°18.518 2°50.985 -999 173 15.9 102090 56
2005-10-17 14:30 51°18.528 2°50.973 -999 160 15.6 102090 58
2005-10-17 14:31 51°18.54 2°50.958 -999 150 15.4 102080 59
2005-10-17 14:32 51°18.558 2°50.934 -999 225 15.3 102070 63
2005-10-17 14:33 51°18.57 2°50.846 -999 245 15.3 102100 61
2005-10-17 14:34 51°18.486 2°50.792 -999 292 15.4 102090 60
2005-10-17 14:35 51°18.305 2°50.684 -999 301 15.5 102080 60
2005-10-17 14:36 51°18.112 2°50.574 -999 304 15.5 102090 59
2005-10-17 14:37 51°17.919 2°50.478 -999 301 15.6 102090 60
2005-10-17 14:38 51°17.725 2°50.389 -999 307 15.6 102090 61
2005-10-17 14:39 51°17.531 2°50.302 -999 301 15.6 102070 59
2005-10-17 14:40 51°17.34 2°50.213 -999 301 15.7 102080 60
2005-10-17 14:41 51°17.149 2°50.131 -999 309 15.7 102080 60
2005-10-17 14:42 51°16.962 2°50.046 -999 297 15.7 102080 59
2005-10-17 14:43 51°16.778 2°49.947 -999 293 15.8 102080 62
2005-10-17 14:44 51°16.681 2°49.855 -999 264 15.8 102080 59
2005-10-17 14:45 51°16.648 2°49.807 -999 253 15.7 102080 56
2005-10-17 14:46 51°16.648 2°49.802 -999 257 15.7 102080 59
2005-10-17 14:47 51°16.652 2°49.805 -999 271 15.7 102080 62
2005-10-17 14:48 51°16.653 2°49.809 -999 273 15.6 102080 60
2005-10-17 14:49 51°16.659 2°49.811 -999 270 15.7 102080 60
2005-10-17 14:50 51°16.651 2°49.803 -999 258 15.7 102070 58
2005-10-17 14:51 51°16.636 2°49.793 -999 262 15.6 102080 58
2005-10-17 14:52 51°16.666 2°49.807 -999 244 15.6 102080 58
2005-10-17 14:53 51°16.704 2°49.835 -999 243 15.6 102080 61
2005-10-17 14:54 51°16.663 2°49.849 -999 227 15.6 102080 60
2005-10-17 14:55 51°16.513 2°49.989 -999 339 15.6 102060 59
2005-10-17 14:56 51°16.378 2°50.233 -999 352 15.6 102060 60
2005-10-17 14:57 51°16.322 2°50.554 -999 1 15.6 102060 59
2005-10-17 14:58 51°16.291 2°50.894 -999 1 15.6 102070 60
2005-10-17 14:59 51°16.28 2°51.237 -999 359 15.6 102060 59
2005-10-17 15:00 51°16.274 2°51.58 -999 5 15.6 102070 59
2005-10-17 15:01 51°16.266 2°51.922 -999 4 15.5 102060 57
2005-10-17 15:02 51°16.255 2°52.263 -999 7 15.6 102070 57
2005-10-17 15:03 51°16.243 2°52.606 -999 4 15.6 102060 57
2005-10-17 15:04 51°16.231 2°52.95 -999 5 15.5 102070 57
2005-10-17 15:05 51°16.201 2°53.29 -999 2 15.6 102070 56
2005-10-17 15:06 51°16.159 2°53.625 -999 4 15.5 102060 57
2005-10-17 15:07 51°16.186 2°53.953 -999 21 15.5 102050 57
2005-10-17 15:08 51°16.219 2°54.201 -999 13 15.5 102070 56
2005-10-17 15:09 51°16.254 2°54.303 -999 64 15.5 102060 54
2005-10-17 15:10 51°16.259 2°54.303 -999 115 15.5 102060 56
2005-10-17 15:11 51°16.262 2°54.299 -999 132 15.5 102080 56
2005-10-17 15:12 51°16.265 2°54.295 -999 133 15.4 102070 55
2005-10-17 15:13 51°16.269 2°54.288 -999 135 15.5 102070 57
2005-10-17 15:14 51°16.274 2°54.28 -999 136 15.4 102070 58
2005-10-17 15:15 51°16.297 2°54.218 -999 194 15.4 102080 55
2005-10-17 15:16 51°16.221 2°54.104 -999 305 15.5 102070 56
2005-10-17 15:17 51°16.028 2°54.117 -999 324 15.5 102060 58
2005-10-17 15:18 51°15.814 2°54.136 -999 316 15.5 102060 57
2005-10-17 15:19 51°15.607 2°54.147 -999 317 15.5 102050 55
2005-10-17 15:20 51°15.398 2°54.159 -999 320 15.5 102060 60
2005-10-17 15:21 51°15.19 2°54.183 -999 317 15.5 102040 58
2005-10-17 15:22 51°15.006 2°54.311 -999 326 15.5 102050 56
2005-10-17 15:23 51°14.83 2°54.478 -999 338 15.4 102050 58
2005-10-17 15:24 51°14.66 2°54.665 -999 337 15.4 102040 57
2005-10-17 15:25 51°14.493 2°54.849 -999 336 15.4 102050 56
2005-10-17 15:26 51°14.36 2°55.074 -999 351 15.5 102050 57
2005-10-17 15:27 51°14.232 2°55.299 -999 346 15.5 102050 55
2005-10-17 15:28 51°14.094 2°55.424 -999 347 15.5 102060 54
2005-10-17 15:29 51°13.963 2°55.52 -999 321 15.6 102060 54
2005-10-17 15:30 51°13.835 2°55.619 -999 352 15.6 102060 53
2005-10-17 15:31 51°13.732 2°55.741 -999 356 15.6 102070 54
2005-10-17 15:32 51°13.672 2°55.864 -999 355 15.6 102060 53
2005-10-17 15:33 51°13.631 2°55.971 -999 340 15.5 102060 53
2005-10-17 15:34 51°13.612 2°56.054 -999 356 15.5 102070 54
2005-10-17 15:35 51°13.602 2°56.098 -999 350 15.5 102070 54